sensor_id;sensor_type;location;lat;lon;timestamp;temperature;humidity
15203;DHT22;7702;51.046;5.184;2024-02-04T00:00:15;10.30;99.90
15203;DHT22;7702;51.046;5.184;2024-02-04T00:02:42;10.30;99.90
15203;DHT22;7702;51.046;5.184;2024-02-04T00:05:08;10.30;99.90
15203;DHT22;7702;51.046;5.184;2024-02-04T00:07:33;10.30;99.90
15203;DHT22;7702;51.046;5.184;2024-02-04T00:09:59;10.40;99.90
15203;DHT22;7702;51.046;5.184;2024-02-04T00:12:25;10.30;99.90
15203;DHT22;7702;51.046;5.184;2024-02-04T00:14:50;10.30;99.90
15203;DHT22;7702;51.046;5.184;2024-02-04T00:17:16;10.30;99.90
15203;DHT22;7702;51.046;5.184;2024-02-04T00:19:42;10.30;99.90
15203;DHT22;7702;51.046;5.184;2024-02-04T00:22:08;10.30;99.90
15203;DHT22;7702;51.046;5.184;2024-02-04T00:24:34;10.30;99.90
15203;DHT22;7702;51.046;5.184;2024-02-04T00:27:00;10.30;99.90
15203;DHT22;7702;51.046;5.184;2024-02-04T00:29:25;10.30;99.90
15203;DHT22;7702;51.046;5.184;2024-02-04T00:31:51;10.30;99.90
15203;DHT22;7702;51.046;5.184;2024-02-04T00:34:17;10.30;99.90
15203;DHT22;7702;51.046;5.184;2024-02-04T00:36:43;10.30;99.90
15203;DHT22;7702;51.046;5.184;2024-02-04T00:39:08;10.30;99.90
15203;DHT22;7702;51.046;5.184;2024-02-04T00:41:35;10.40;99.90
15203;DHT22;7702;51.046;5.184;2024-02-04T00:44:01;10.30;99.90
15203;DHT22;7702;51.046;5.184;2024-02-04T00:46:27;10.30;99.90
15203;DHT22;7702;51.046;5.184;2024-02-04T00:48:53;10.30;99.90
15203;DHT22;7702;51.046;5.184;2024-02-04T00:51:19;10.30;99.90
15203;DHT22;7702;51.046;5.184;2024-02-04T00:53:46;10.30;99.90
15203;DHT22;7702;51.046;5.184;2024-02-04T00:56:11;10.30;99.90
15203;DHT22;7702;51.046;5.184;2024-02-04T00:58:38;10.30;99.90
15203;DHT22;7702;51.046;5.184;2024-02-04T01:01:04;10.30;99.90
15203;DHT22;7702;51.046;5.184;2024-02-04T01:03:31;10.40;99.90
15203;DHT22;7702;51.046;5.184;2024-02-04T01:05:57;10.30;99.90
15203;DHT22;7702;51.046;5.184;2024-02-04T01:08:23;10.30;99.90
15203;DHT22;7702;51.046;5.184;2024-02-04T01:10:49;10.30;99.90
15203;DHT22;7702;51.046;5.184;2024-02-04T01:13:17;10.30;99.90
15203;DHT22;7702;51.046;5.184;2024-02-04T01:15:43;10.30;99.90
15203;DHT22;7702;51.046;5.184;2024-02-04T01:18:09;10.30;99.90
15203;DHT22;7702;51.046;5.184;2024-02-04T01:20:35;10.30;99.90
15203;DHT22;7702;51.046;5.184;2024-02-04T01:23:00;10.30;99.90
15203;DHT22;7702;51.046;5.184;2024-02-04T01:25:26;10.30;99.90
15203;DHT22;7702;51.046;5.184;2024-02-04T01:27:52;10.30;99.90
15203;DHT22;7702;51.046;5.184;2024-02-04T01:30:17;10.40;99.90
15203;DHT22;7702;51.046;5.184;2024-02-04T01:32:43;10.30;99.90
15203;DHT22;7702;51.046;5.184;2024-02-04T01:35:09;10.30;99.90
15203;DHT22;7702;51.046;5.184;2024-02-04T01:37:34;10.30;99.90
15203;DHT22;7702;51.046;5.184;2024-02-04T01:40:00;10.30;99.90
15203;DHT22;7702;51.046;5.184;2024-02-04T01:42:26;10.30;99.90
15203;DHT22;7702;51.046;5.184;2024-02-04T01:44:51;10.30;99.90
15203;DHT22;7702;51.046;5.184;2024-02-04T01:47:17;10.40;99.90
15203;DHT22;7702;51.046;5.184;2024-02-04T01:49:43;10.30;99.90
15203;DHT22;7702;51.046;5.184;2024-02-04T01:52:10;10.40;99.90
15203;DHT22;7702;51.046;5.184;2024-02-04T01:54:37;10.40;99.90
15203;DHT22;7702;51.046;5.184;2024-02-04T01:57:06;10.30;99.90
15203;DHT22;7702;51.046;5.184;2024-02-04T01:59:32;10.40;99.90
15203;DHT22;7702;51.046;5.184;2024-02-04T02:02:00;10.30;99.90
15203;DHT22;7702;51.046;5.184;2024-02-04T02:04:26;10.40;99.90
15203;DHT22;7702;51.046;5.184;2024-02-04T02:06:53;10.40;99.90
15203;DHT22;7702;51.046;5.184;2024-02-04T02:09:19;10.40;99.90
15203;DHT22;7702;51.046;5.184;2024-02-04T02:11:47;10.40;99.90
15203;DHT22;7702;51.046;5.184;2024-02-04T02:14:18;10.40;99.90
15203;DHT22;7702;51.046;5.184;2024-02-04T02:16:45;10.40;99.90
15203;DHT22;7702;51.046;5.184;2024-02-04T02:22:06;10.40;99.90
15203;DHT22;7702;51.046;5.184;2024-02-04T02:24:35;10.50;99.90
15203;DHT22;7702;51.046;5.184;2024-02-04T02:27:03;10.50;99.90
15203;DHT22;7702;51.046;5.184;2024-02-04T02:29:31;10.50;99.90
15203;DHT22;7702;51.046;5.184;2024-02-04T02:31:58;10.50;99.90
15203;DHT22;7702;51.046;5.184;2024-02-04T02:34:25;10.50;99.90
15203;DHT22;7702;51.046;5.184;2024-02-04T02:36:57;10.40;99.90
15203;DHT22;7702;51.046;5.184;2024-02-04T02:39:33;10.40;99.90
15203;DHT22;7702;51.046;5.184;2024-02-04T02:42:04;10.50;99.90
15203;DHT22;7702;51.046;5.184;2024-02-04T02:44:30;10.50;99.90
15203;DHT22;7702;51.046;5.184;2024-02-04T02:46:57;10.50;99.90
15203;DHT22;7702;51.046;5.184;2024-02-04T02:49:24;10.50;99.90
15203;DHT22;7702;51.046;5.184;2024-02-04T02:51:49;10.50;99.90
15203;DHT22;7702;51.046;5.184;2024-02-04T02:54:15;10.50;99.90
15203;DHT22;7702;51.046;5.184;2024-02-04T02:56:41;10.50;99.90
15203;DHT22;7702;51.046;5.184;2024-02-04T02:59:07;10.50;99.90
15203;DHT22;7702;51.046;5.184;2024-02-04T03:01:33;10.60;99.90
15203;DHT22;7702;51.046;5.184;2024-02-04T03:03:59;10.50;99.90
15203;DHT22;7702;51.046;5.184;2024-02-04T03:06:24;10.50;99.90
15203;DHT22;7702;51.046;5.184;2024-02-04T03:08:50;10.50;99.90
15203;DHT22;7702;51.046;5.184;2024-02-04T03:11:16;10.50;99.90
15203;DHT22;7702;51.046;5.184;2024-02-04T03:13:42;10.50;99.90
15203;DHT22;7702;51.046;5.184;2024-02-04T03:16:11;10.60;99.90
15203;DHT22;7702;51.046;5.184;2024-02-04T03:18:40;10.50;99.90
15203;DHT22;7702;51.046;5.184;2024-02-04T03:21:12;10.60;99.90
15203;DHT22;7702;51.046;5.184;2024-02-04T03:23:38;10.60;99.90
15203;DHT22;7702;51.046;5.184;2024-02-04T03:26:03;10.60;99.90
15203;DHT22;7702;51.046;5.184;2024-02-04T03:28:29;10.60;99.90
15203;DHT22;7702;51.046;5.184;2024-02-04T03:30:55;10.60;99.90
15203;DHT22;7702;51.046;5.184;2024-02-04T03:33:20;10.60;99.90
15203;DHT22;7702;51.046;5.184;2024-02-04T03:35:46;10.60;99.90
15203;DHT22;7702;51.046;5.184;2024-02-04T03:38:12;10.60;99.90
15203;DHT22;7702;51.046;5.184;2024-02-04T03:40:37;10.60;99.90
15203;DHT22;7702;51.046;5.184;2024-02-04T03:43:03;10.60;99.90
15203;DHT22;7702;51.046;5.184;2024-02-04T03:45:29;10.60;99.90
15203;DHT22;7702;51.046;5.184;2024-02-04T03:47:54;10.60;99.90
15203;DHT22;7702;51.046;5.184;2024-02-04T03:50:20;10.60;99.90
15203;DHT22;7702;51.046;5.184;2024-02-04T03:52:46;10.60;99.90
15203;DHT22;7702;51.046;5.184;2024-02-04T03:55:12;10.60;99.90
15203;DHT22;7702;51.046;5.184;2024-02-04T03:57:37;10.60;99.90
15203;DHT22;7702;51.046;5.184;2024-02-04T04:00:04;10.60;99.90
15203;DHT22;7702;51.046;5.184;2024-02-04T04:02:30;10.70;99.90
15203;DHT22;7702;51.046;5.184;2024-02-04T04:04:55;10.70;99.90
15203;DHT22;7702;51.046;5.184;2024-02-04T04:07:21;10.70;99.90
15203;DHT22;7702;51.046;5.184;2024-02-04T04:09:46;10.60;99.90
15203;DHT22;7702;51.046;5.184;2024-02-04T04:12:12;10.70;99.90
15203;DHT22;7702;51.046;5.184;2024-02-04T04:14:38;10.70;99.90
15203;DHT22;7702;51.046;5.184;2024-02-04T04:17:03;10.70;99.90
15203;DHT22;7702;51.046;5.184;2024-02-04T04:19:29;10.70;99.90
15203;DHT22;7702;51.046;5.184;2024-02-04T04:21:55;10.70;99.90
15203;DHT22;7702;51.046;5.184;2024-02-04T04:24:22;10.70;99.90
15203;DHT22;7702;51.046;5.184;2024-02-04T04:26:47;10.60;99.90
15203;DHT22;7702;51.046;5.184;2024-02-04T04:29:13;10.60;99.90
15203;DHT22;7702;51.046;5.184;2024-02-04T04:31:39;10.60;99.90
15203;DHT22;7702;51.046;5.184;2024-02-04T04:34:05;10.60;99.90
15203;DHT22;7702;51.046;5.184;2024-02-04T04:36:31;10.70;99.90
15203;DHT22;7702;51.046;5.184;2024-02-04T04:38:57;10.70;99.90
15203;DHT22;7702;51.046;5.184;2024-02-04T04:41:23;10.70;99.90
15203;DHT22;7702;51.046;5.184;2024-02-04T04:43:48;10.70;99.90
15203;DHT22;7702;51.046;5.184;2024-02-04T04:46:14;10.70;99.90
15203;DHT22;7702;51.046;5.184;2024-02-04T04:48:40;10.70;99.90
15203;DHT22;7702;51.046;5.184;2024-02-04T04:51:08;10.70;99.90
15203;DHT22;7702;51.046;5.184;2024-02-04T04:53:34;10.80;99.90
15203;DHT22;7702;51.046;5.184;2024-02-04T04:56:00;10.70;99.90
15203;DHT22;7702;51.046;5.184;2024-02-04T04:58:25;10.70;99.90
15203;DHT22;7702;51.046;5.184;2024-02-04T05:00:51;10.70;99.90
15203;DHT22;7702;51.046;5.184;2024-02-04T05:03:17;10.80;99.90
15203;DHT22;7702;51.046;5.184;2024-02-04T05:05:42;10.70;99.90
15203;DHT22;7702;51.046;5.184;2024-02-04T05:08:08;10.70;99.90
15203;DHT22;7702;51.046;5.184;2024-02-04T05:10:33;10.60;99.90
15203;DHT22;7702;51.046;5.184;2024-02-04T05:13:00;10.60;99.90
15203;DHT22;7702;51.046;5.184;2024-02-04T05:15:25;10.60;99.90
15203;DHT22;7702;51.046;5.184;2024-02-04T05:17:51;10.60;99.90
15203;DHT22;7702;51.046;5.184;2024-02-04T05:20:17;10.60;99.90
15203;DHT22;7702;51.046;5.184;2024-02-04T05:22:43;10.60;99.90
15203;DHT22;7702;51.046;5.184;2024-02-04T05:25:09;10.60;99.90
15203;DHT22;7702;51.046;5.184;2024-02-04T05:27:35;10.60;99.90
15203;DHT22;7702;51.046;5.184;2024-02-04T05:30:02;10.60;99.90
15203;DHT22;7702;51.046;5.184;2024-02-04T05:32:28;10.60;99.90
15203;DHT22;7702;51.046;5.184;2024-02-04T05:34:54;10.60;99.90
15203;DHT22;7702;51.046;5.184;2024-02-04T05:37:19;10.50;99.90
15203;DHT22;7702;51.046;5.184;2024-02-04T05:39:45;10.50;99.90
15203;DHT22;7702;51.046;5.184;2024-02-04T05:42:11;10.50;99.90
15203;DHT22;7702;51.046;5.184;2024-02-04T05:44:36;10.50;99.90
15203;DHT22;7702;51.046;5.184;2024-02-04T05:47:02;10.50;99.90
15203;DHT22;7702;51.046;5.184;2024-02-04T05:49:28;10.50;99.90
15203;DHT22;7702;51.046;5.184;2024-02-04T05:51:53;10.50;99.90
15203;DHT22;7702;51.046;5.184;2024-02-04T05:54:19;10.50;99.90
15203;DHT22;7702;51.046;5.184;2024-02-04T05:56:45;10.50;99.90
15203;DHT22;7702;51.046;5.184;2024-02-04T05:59:11;10.50;99.90
15203;DHT22;7702;51.046;5.184;2024-02-04T06:01:37;10.50;99.90
15203;DHT22;7702;51.046;5.184;2024-02-04T06:04:02;10.50;99.90
15203;DHT22;7702;51.046;5.184;2024-02-04T06:06:29;10.50;99.90
15203;DHT22;7702;51.046;5.184;2024-02-04T06:08:54;10.50;99.90
15203;DHT22;7702;51.046;5.184;2024-02-04T06:11:20;10.50;99.90
15203;DHT22;7702;51.046;5.184;2024-02-04T06:13:46;10.50;99.90
15203;DHT22;7702;51.046;5.184;2024-02-04T06:16:11;10.50;99.90
15203;DHT22;7702;51.046;5.184;2024-02-04T06:18:38;10.50;99.90
15203;DHT22;7702;51.046;5.184;2024-02-04T06:21:05;10.50;99.90
15203;DHT22;7702;51.046;5.184;2024-02-04T06:23:31;10.50;99.90
15203;DHT22;7702;51.046;5.184;2024-02-04T06:25:56;10.50;99.90
15203;DHT22;7702;51.046;5.184;2024-02-04T06:28:22;10.50;99.90
15203;DHT22;7702;51.046;5.184;2024-02-04T06:30:48;10.50;99.90
15203;DHT22;7702;51.046;5.184;2024-02-04T06:33:15;10.50;99.90
15203;DHT22;7702;51.046;5.184;2024-02-04T06:35:41;10.50;99.90
15203;DHT22;7702;51.046;5.184;2024-02-04T06:38:06;10.50;99.90
15203;DHT22;7702;51.046;5.184;2024-02-04T06:40:32;10.50;99.90
15203;DHT22;7702;51.046;5.184;2024-02-04T06:42:58;10.50;99.90
15203;DHT22;7702;51.046;5.184;2024-02-04T06:45:24;10.50;99.90
15203;DHT22;7702;51.046;5.184;2024-02-04T06:47:49;10.50;99.90
15203;DHT22;7702;51.046;5.184;2024-02-04T06:50:15;10.50;99.90
15203;DHT22;7702;51.046;5.184;2024-02-04T06:52:42;10.50;99.90
15203;DHT22;7702;51.046;5.184;2024-02-04T06:55:08;10.50;99.90
15203;DHT22;7702;51.046;5.184;2024-02-04T06:57:34;10.50;99.90
15203;DHT22;7702;51.046;5.184;2024-02-04T07:00:00;10.50;99.90
15203;DHT22;7702;51.046;5.184;2024-02-04T07:02:25;10.50;99.90
15203;DHT22;7702;51.046;5.184;2024-02-04T07:04:52;10.50;99.90
15203;DHT22;7702;51.046;5.184;2024-02-04T07:07:18;10.50;99.90
15203;DHT22;7702;51.046;5.184;2024-02-04T07:09:43;10.50;99.90
15203;DHT22;7702;51.046;5.184;2024-02-04T07:12:09;10.50;99.90
15203;DHT22;7702;51.046;5.184;2024-02-04T07:14:35;10.50;99.90
15203;DHT22;7702;51.046;5.184;2024-02-04T07:17:01;10.50;99.90
15203;DHT22;7702;51.046;5.184;2024-02-04T07:19:26;10.50;99.90
15203;DHT22;7702;51.046;5.184;2024-02-04T07:21:52;10.50;99.90
15203;DHT22;7702;51.046;5.184;2024-02-04T07:24:18;10.50;99.90
15203;DHT22;7702;51.046;5.184;2024-02-04T07:26:45;10.50;99.90
15203;DHT22;7702;51.046;5.184;2024-02-04T07:29:12;10.50;99.90
15203;DHT22;7702;51.046;5.184;2024-02-04T07:31:38;10.50;99.90
15203;DHT22;7702;51.046;5.184;2024-02-04T07:34:04;10.50;99.90
15203;DHT22;7702;51.046;5.184;2024-02-04T07:36:30;10.50;99.90
15203;DHT22;7702;51.046;5.184;2024-02-04T07:38:56;10.50;99.90
15203;DHT22;7702;51.046;5.184;2024-02-04T07:41:21;10.60;99.90
15203;DHT22;7702;51.046;5.184;2024-02-04T07:43:47;10.50;99.90
15203;DHT22;7702;51.046;5.184;2024-02-04T07:46:14;10.60;99.90
15203;DHT22;7702;51.046;5.184;2024-02-04T07:48:39;10.50;99.90
15203;DHT22;7702;51.046;5.184;2024-02-04T07:51:06;10.50;99.90
15203;DHT22;7702;51.046;5.184;2024-02-04T07:53:32;10.50;99.90
15203;DHT22;7702;51.046;5.184;2024-02-04T07:55:57;10.60;99.90
15203;DHT22;7702;51.046;5.184;2024-02-04T07:58:23;10.60;99.90
15203;DHT22;7702;51.046;5.184;2024-02-04T08:00:49;10.60;99.90
15203;DHT22;7702;51.046;5.184;2024-02-04T08:03:15;10.60;99.90
15203;DHT22;7702;51.046;5.184;2024-02-04T08:05:40;10.70;99.90
15203;DHT22;7702;51.046;5.184;2024-02-04T08:08:06;10.70;99.90
15203;DHT22;7702;51.046;5.184;2024-02-04T08:10:32;10.70;99.90
15203;DHT22;7702;51.046;5.184;2024-02-04T08:12:57;10.70;99.90
15203;DHT22;7702;51.046;5.184;2024-02-04T08:15:23;10.70;99.90
15203;DHT22;7702;51.046;5.184;2024-02-04T08:17:48;10.70;99.90
15203;DHT22;7702;51.046;5.184;2024-02-04T08:20:14;10.70;99.90
15203;DHT22;7702;51.046;5.184;2024-02-04T08:22:40;10.70;99.90
15203;DHT22;7702;51.046;5.184;2024-02-04T08:25:06;10.70;99.90
15203;DHT22;7702;51.046;5.184;2024-02-04T08:27:31;10.70;99.90
15203;DHT22;7702;51.046;5.184;2024-02-04T08:29:57;10.70;99.90
15203;DHT22;7702;51.046;5.184;2024-02-04T08:32:24;10.80;99.90
15203;DHT22;7702;51.046;5.184;2024-02-04T08:34:49;10.80;99.90
15203;DHT22;7702;51.046;5.184;2024-02-04T08:37:15;10.80;99.90
15203;DHT22;7702;51.046;5.184;2024-02-04T08:39:40;10.90;99.90
15203;DHT22;7702;51.046;5.184;2024-02-04T08:42:06;10.90;99.90
15203;DHT22;7702;51.046;5.184;2024-02-04T08:44:32;10.90;99.90
15203;DHT22;7702;51.046;5.184;2024-02-04T08:46:57;10.90;99.90
15203;DHT22;7702;51.046;5.184;2024-02-04T08:49:23;10.90;99.90
15203;DHT22;7702;51.046;5.184;2024-02-04T08:51:49;10.90;99.90
15203;DHT22;7702;51.046;5.184;2024-02-04T08:54:15;10.90;99.90
15203;DHT22;7702;51.046;5.184;2024-02-04T08:56:40;10.90;99.90
15203;DHT22;7702;51.046;5.184;2024-02-04T08:59:06;11.00;99.90
15203;DHT22;7702;51.046;5.184;2024-02-04T09:01:32;11.00;99.90
15203;DHT22;7702;51.046;5.184;2024-02-04T09:03:57;11.00;99.90
15203;DHT22;7702;51.046;5.184;2024-02-04T09:06:23;11.10;99.90
15203;DHT22;7702;51.046;5.184;2024-02-04T09:08:49;11.10;99.90
15203;DHT22;7702;51.046;5.184;2024-02-04T09:11:15;11.10;99.90
15203;DHT22;7702;51.046;5.184;2024-02-04T09:13:47;11.10;99.90
15203;DHT22;7702;51.046;5.184;2024-02-04T09:16:13;11.10;99.90
15203;DHT22;7702;51.046;5.184;2024-02-04T09:18:38;11.20;99.90
15203;DHT22;7702;51.046;5.184;2024-02-04T09:21:05;11.10;99.90
15203;DHT22;7702;51.046;5.184;2024-02-04T09:23:30;11.20;99.90
15203;DHT22;7702;51.046;5.184;2024-02-04T09:25:56;11.10;99.90
15203;DHT22;7702;51.046;5.184;2024-02-04T09:28:22;11.10;99.90
15203;DHT22;7702;51.046;5.184;2024-02-04T09:30:47;11.10;99.90
15203;DHT22;7702;51.046;5.184;2024-02-04T09:33:14;11.10;99.90
15203;DHT22;7702;51.046;5.184;2024-02-04T09:35:40;11.10;99.90
15203;DHT22;7702;51.046;5.184;2024-02-04T09:38:05;11.10;99.90
15203;DHT22;7702;51.046;5.184;2024-02-04T09:40:31;11.10;99.90
15203;DHT22;7702;51.046;5.184;2024-02-04T09:42:58;11.10;99.90
15203;DHT22;7702;51.046;5.184;2024-02-04T09:45:24;11.10;99.90
15203;DHT22;7702;51.046;5.184;2024-02-04T09:47:52;11.10;99.90
15203;DHT22;7702;51.046;5.184;2024-02-04T09:50:20;11.20;99.90
15203;DHT22;7702;51.046;5.184;2024-02-04T09:52:50;11.20;99.90
15203;DHT22;7702;51.046;5.184;2024-02-04T09:55:20;11.20;99.90
15203;DHT22;7702;51.046;5.184;2024-02-04T09:57:47;11.20;99.90
15203;DHT22;7702;51.046;5.184;2024-02-04T10:00:13;11.20;99.90
15203;DHT22;7702;51.046;5.184;2024-02-04T10:02:41;11.30;99.90
15203;DHT22;7702;51.046;5.184;2024-02-04T10:05:08;11.30;99.90
15203;DHT22;7702;51.046;5.184;2024-02-04T10:07:36;11.30;99.90
15203;DHT22;7702;51.046;5.184;2024-02-04T10:10:02;11.30;99.90
15203;DHT22;7702;51.046;5.184;2024-02-04T10:12:27;11.40;99.90
15203;DHT22;7702;51.046;5.184;2024-02-04T10:14:53;11.40;99.90
15203;DHT22;7702;51.046;5.184;2024-02-04T10:17:19;11.40;99.90
15203;DHT22;7702;51.046;5.184;2024-02-04T10:19:49;11.40;99.90
15203;DHT22;7702;51.046;5.184;2024-02-04T10:22:14;11.40;99.90
15203;DHT22;7702;51.046;5.184;2024-02-04T10:24:42;11.40;99.90
15203;DHT22;7702;51.046;5.184;2024-02-04T10:27:10;11.40;99.90
15203;DHT22;7702;51.046;5.184;2024-02-04T10:29:36;11.50;99.90
15203;DHT22;7702;51.046;5.184;2024-02-04T10:32:02;11.50;99.90
15203;DHT22;7702;51.046;5.184;2024-02-04T10:34:28;11.50;99.90
15203;DHT22;7702;51.046;5.184;2024-02-04T10:36:57;11.50;99.90
15203;DHT22;7702;51.046;5.184;2024-02-04T10:39:23;11.40;99.90
15203;DHT22;7702;51.046;5.184;2024-02-04T10:41:52;11.50;99.90
15203;DHT22;7702;51.046;5.184;2024-02-04T10:44:22;11.50;99.90
15203;DHT22;7702;51.046;5.184;2024-02-04T10:46:50;11.50;99.90
15203;DHT22;7702;51.046;5.184;2024-02-04T10:49:18;11.50;99.90
15203;DHT22;7702;51.046;5.184;2024-02-04T10:51:45;11.40;99.90
15203;DHT22;7702;51.046;5.184;2024-02-04T10:54:15;11.40;99.90
15203;DHT22;7702;51.046;5.184;2024-02-04T10:56:55;11.40;99.90
15203;DHT22;7702;51.046;5.184;2024-02-04T10:59:22;11.40;99.90
15203;DHT22;7702;51.046;5.184;2024-02-04T11:01:49;11.40;99.90
15203;DHT22;7702;51.046;5.184;2024-02-04T11:04:16;11.40;99.90
15203;DHT22;7702;51.046;5.184;2024-02-04T11:06:43;11.50;99.90
15203;DHT22;7702;51.046;5.184;2024-02-04T11:09:09;11.50;99.90
15203;DHT22;7702;51.046;5.184;2024-02-04T11:11:37;11.50;99.90
15203;DHT22;7702;51.046;5.184;2024-02-04T11:14:07;11.60;99.90
15203;DHT22;7702;51.046;5.184;2024-02-04T11:19:35;11.60;99.90
15203;DHT22;7702;51.046;5.184;2024-02-04T11:27:06;11.70;99.90
15203;DHT22;7702;51.046;5.184;2024-02-04T11:29:31;11.70;99.90
15203;DHT22;7702;51.046;5.184;2024-02-04T11:31:58;11.80;99.90
15203;DHT22;7702;51.046;5.184;2024-02-04T11:34:24;11.80;99.90
15203;DHT22;7702;51.046;5.184;2024-02-04T11:36:49;11.80;99.90
15203;DHT22;7702;51.046;5.184;2024-02-04T11:39:18;11.80;99.90
15203;DHT22;7702;51.046;5.184;2024-02-04T11:41:48;11.80;99.90
15203;DHT22;7702;51.046;5.184;2024-02-04T11:44:21;11.80;99.90
15203;DHT22;7702;51.046;5.184;2024-02-04T11:46:47;11.80;99.90
15203;DHT22;7702;51.046;5.184;2024-02-04T11:49:17;11.80;99.90
15203;DHT22;7702;51.046;5.184;2024-02-04T11:51:48;11.80;99.90
15203;DHT22;7702;51.046;5.184;2024-02-04T11:54:16;11.80;99.90
15203;DHT22;7702;51.046;5.184;2024-02-04T11:56:43;11.80;99.90
15203;DHT22;7702;51.046;5.184;2024-02-04T11:59:09;11.80;99.90
15203;DHT22;7702;51.046;5.184;2024-02-04T12:01:35;11.70;99.90
15203;DHT22;7702;51.046;5.184;2024-02-04T12:04:13;11.80;99.90
15203;DHT22;7702;51.046;5.184;2024-02-04T12:06:40;11.80;99.90
15203;DHT22;7702;51.046;5.184;2024-02-04T12:09:10;11.90;99.90
15203;DHT22;7702;51.046;5.184;2024-02-04T12:11:36;11.90;99.90
15203;DHT22;7702;51.046;5.184;2024-02-04T12:14:07;12.00;99.90
15203;DHT22;7702;51.046;5.184;2024-02-04T12:16:33;12.00;99.90
15203;DHT22;7702;51.046;5.184;2024-02-04T12:19:01;12.10;99.90
15203;DHT22;7702;51.046;5.184;2024-02-04T12:21:29;12.10;99.90
15203;DHT22;7702;51.046;5.184;2024-02-04T12:23:55;12.20;99.90
15203;DHT22;7702;51.046;5.184;2024-02-04T12:26:22;12.20;99.90
15203;DHT22;7702;51.046;5.184;2024-02-04T12:28:48;12.20;99.90
15203;DHT22;7702;51.046;5.184;2024-02-04T12:31:19;12.20;99.90
15203;DHT22;7702;51.046;5.184;2024-02-04T12:33:56;12.20;99.90
15203;DHT22;7702;51.046;5.184;2024-02-04T12:36:31;12.10;99.90
15203;DHT22;7702;51.046;5.184;2024-02-04T12:38:58;12.10;99.90
15203;DHT22;7702;51.046;5.184;2024-02-04T12:41:26;12.10;99.90
15203;DHT22;7702;51.046;5.184;2024-02-04T12:43:57;12.00;99.90
15203;DHT22;7702;51.046;5.184;2024-02-04T12:46:28;12.00;99.90
15203;DHT22;7702;51.046;5.184;2024-02-04T12:48:56;12.00;99.90
15203;DHT22;7702;51.046;5.184;2024-02-04T12:51:29;12.00;99.90
15203;DHT22;7702;51.046;5.184;2024-02-04T12:54:06;11.90;99.90
15203;DHT22;7702;51.046;5.184;2024-02-04T12:57:21;11.90;99.90
15203;DHT22;7702;51.046;5.184;2024-02-04T12:59:36;11.90;99.90
15203;DHT22;7702;51.046;5.184;2024-02-04T13:02:06;11.90;99.90
15203;DHT22;7702;51.046;5.184;2024-02-04T13:04:40;11.90;99.90
15203;DHT22;7702;51.046;5.184;2024-02-04T13:07:10;11.90;99.90
15203;DHT22;7702;51.046;5.184;2024-02-04T13:09:38;11.90;99.90
15203;DHT22;7702;51.046;5.184;2024-02-04T13:12:07;11.90;99.90
15203;DHT22;7702;51.046;5.184;2024-02-04T13:14:37;12.00;99.90
15203;DHT22;7702;51.046;5.184;2024-02-04T13:17:04;11.90;99.90
15203;DHT22;7702;51.046;5.184;2024-02-04T13:19:35;11.90;99.90
15203;DHT22;7702;51.046;5.184;2024-02-04T13:22:02;11.90;99.90
15203;DHT22;7702;51.046;5.184;2024-02-04T13:24:30;11.90;99.90
15203;DHT22;7702;51.046;5.184;2024-02-04T13:26:56;11.90;99.90
15203;DHT22;7702;51.046;5.184;2024-02-04T13:29:22;11.80;99.90
15203;DHT22;7702;51.046;5.184;2024-02-04T13:31:48;11.80;99.90
15203;DHT22;7702;51.046;5.184;2024-02-04T13:34:13;11.80;99.90
15203;DHT22;7702;51.046;5.184;2024-02-04T13:36:39;11.80;99.90
15203;DHT22;7702;51.046;5.184;2024-02-04T13:39:05;11.70;99.90
15203;DHT22;7702;51.046;5.184;2024-02-04T13:41:31;11.70;99.90
15203;DHT22;7702;51.046;5.184;2024-02-04T13:43:57;11.70;99.90
15203;DHT22;7702;51.046;5.184;2024-02-04T13:46:23;11.70;99.90
15203;DHT22;7702;51.046;5.184;2024-02-04T13:48:49;11.70;99.90
15203;DHT22;7702;51.046;5.184;2024-02-04T13:51:15;11.70;99.90
15203;DHT22;7702;51.046;5.184;2024-02-04T13:53:41;11.70;99.90
15203;DHT22;7702;51.046;5.184;2024-02-04T13:56:07;11.70;99.90
15203;DHT22;7702;51.046;5.184;2024-02-04T13:58:32;11.70;99.90
15203;DHT22;7702;51.046;5.184;2024-02-04T14:00:58;11.80;99.90
15203;DHT22;7702;51.046;5.184;2024-02-04T14:03:25;11.80;99.90
15203;DHT22;7702;51.046;5.184;2024-02-04T14:05:51;11.80;99.90
15203;DHT22;7702;51.046;5.184;2024-02-04T14:08:17;11.80;99.90
15203;DHT22;7702;51.046;5.184;2024-02-04T14:10:42;11.80;99.90
15203;DHT22;7702;51.046;5.184;2024-02-04T14:13:08;11.80;99.90
15203;DHT22;7702;51.046;5.184;2024-02-04T14:15:34;11.80;99.90
15203;DHT22;7702;51.046;5.184;2024-02-04T14:18:00;11.80;99.90
15203;DHT22;7702;51.046;5.184;2024-02-04T14:20:25;11.80;99.90
15203;DHT22;7702;51.046;5.184;2024-02-04T14:22:52;11.80;99.90
15203;DHT22;7702;51.046;5.184;2024-02-04T14:25:17;11.70;99.90
15203;DHT22;7702;51.046;5.184;2024-02-04T14:27:43;11.70;99.90
15203;DHT22;7702;51.046;5.184;2024-02-04T14:30:09;11.70;99.90
15203;DHT22;7702;51.046;5.184;2024-02-04T14:32:36;11.70;99.90
15203;DHT22;7702;51.046;5.184;2024-02-04T14:35:02;11.70;99.90
15203;DHT22;7702;51.046;5.184;2024-02-04T14:37:30;11.60;99.90
15203;DHT22;7702;51.046;5.184;2024-02-04T14:39:58;11.60;99.90
15203;DHT22;7702;51.046;5.184;2024-02-04T14:42:26;11.60;99.90
15203;DHT22;7702;51.046;5.184;2024-02-04T14:44:52;11.60;99.90
15203;DHT22;7702;51.046;5.184;2024-02-04T14:47:18;11.50;99.90
15203;DHT22;7702;51.046;5.184;2024-02-04T14:49:43;11.50;99.90
15203;DHT22;7702;51.046;5.184;2024-02-04T14:52:09;11.60;99.90
15203;DHT22;7702;51.046;5.184;2024-02-04T14:54:36;11.60;99.90
15203;DHT22;7702;51.046;5.184;2024-02-04T14:57:01;11.60;99.90
15203;DHT22;7702;51.046;5.184;2024-02-04T14:59:27;11.60;99.90
15203;DHT22;7702;51.046;5.184;2024-02-04T15:01:53;11.60;99.90
15203;DHT22;7702;51.046;5.184;2024-02-04T15:04:18;11.60;99.90
15203;DHT22;7702;51.046;5.184;2024-02-04T15:06:44;11.60;99.90
15203;DHT22;7702;51.046;5.184;2024-02-04T15:09:10;11.70;99.90
15203;DHT22;7702;51.046;5.184;2024-02-04T15:11:37;11.70;99.90
15203;DHT22;7702;51.046;5.184;2024-02-04T15:14:03;11.70;99.90
15203;DHT22;7702;51.046;5.184;2024-02-04T15:16:30;11.70;99.90
15203;DHT22;7702;51.046;5.184;2024-02-04T15:18:56;11.70;99.90
15203;DHT22;7702;51.046;5.184;2024-02-04T15:21:22;11.70;99.90
15203;DHT22;7702;51.046;5.184;2024-02-04T15:23:50;11.70;99.90
15203;DHT22;7702;51.046;5.184;2024-02-04T15:26:16;11.70;99.90
15203;DHT22;7702;51.046;5.184;2024-02-04T15:28:42;11.80;99.90
15203;DHT22;7702;51.046;5.184;2024-02-04T15:31:08;11.80;99.90
15203;DHT22;7702;51.046;5.184;2024-02-04T15:33:35;11.70;99.90
15203;DHT22;7702;51.046;5.184;2024-02-04T15:36:00;11.70;99.90
15203;DHT22;7702;51.046;5.184;2024-02-04T15:38:26;11.70;99.90
15203;DHT22;7702;51.046;5.184;2024-02-04T15:40:54;11.80;99.90
15203;DHT22;7702;51.046;5.184;2024-02-04T15:43:19;11.70;99.90
15203;DHT22;7702;51.046;5.184;2024-02-04T15:45:46;11.60;99.90
15203;DHT22;7702;51.046;5.184;2024-02-04T15:48:17;11.60;99.90
15203;DHT22;7702;51.046;5.184;2024-02-04T15:50:43;11.60;99.90